createdAt,value
2024-04-09T00:01:47.089Z,7.47
2024-04-09T00:04:18.560Z,8.40
2024-04-09T00:06:49.611Z,8.25
2024-04-09T00:09:22.571Z,7.30
2024-04-09T00:11:54.930Z,8.18
2024-04-09T00:14:25.909Z,11.15
2024-04-09T00:16:57.217Z,19.50
2024-04-09T00:19:30.552Z,13.05
2024-04-09T00:22:02.469Z,16.08
2024-04-09T00:24:33.587Z,30.98
2024-04-09T00:27:05.614Z,16.25
2024-04-09T00:29:35.824Z,9.10
2024-04-09T00:32:07.547Z,6.72
2024-04-09T00:34:39.122Z,7.10
2024-04-09T00:37:10.045Z,6.68
2024-04-09T00:39:38.835Z,7.80
2024-04-09T00:42:11.168Z,7.53
2024-04-09T00:44:40.028Z,6.43
2024-04-09T00:47:17.948Z,6.82
2024-04-09T00:49:50.137Z,7.47
2024-04-09T00:52:21.436Z,7.45
2024-04-09T00:54:53.749Z,7.18
2024-04-09T00:57:25.049Z,6.72
2024-04-09T00:59:54.824Z,7.25
2024-04-09T01:02:27.318Z,6.82
2024-04-09T01:04:58.943Z,7.78
2024-04-09T01:07:31.004Z,7.07
2024-04-09T01:10:02.759Z,6.55
2024-04-09T01:12:32.170Z,7.38
2024-04-09T01:15:03.751Z,7.38
2024-04-09T01:17:33.593Z,6.93
2024-04-09T01:20:09.245Z,7.15
2024-04-09T01:22:40.174Z,7.18
2024-04-09T01:25:12.027Z,7.55
2024-04-09T01:27:42.200Z,7.07
2024-04-09T01:30:14.587Z,8.25
2024-04-09T01:32:43.009Z,8.55
2024-04-09T01:35:15.633Z,7.15
2024-04-09T01:37:47.848Z,7.38
2024-04-09T01:40:19.318Z,7.28
2024-04-09T01:42:47.499Z,6.80
2024-04-09T01:45:19.321Z,7.82
2024-04-09T01:47:47.896Z,7.25
2024-04-09T01:50:19.691Z,7.60
2024-04-09T01:52:50.606Z,7.60
2024-04-09T01:55:24.022Z,7.55
2024-04-09T01:57:52.276Z,7.38
2024-04-09T02:00:24.004Z,8.07
2024-04-09T02:02:54.061Z,7.70
2024-04-09T02:05:25.783Z,7.78
2024-04-09T02:07:57.217Z,7.13
2024-04-09T02:10:29.873Z,6.88
2024-04-09T02:12:58.471Z,7.50
2024-04-09T02:15:29.861Z,7.22
2024-04-09T02:17:58.735Z,7.40
2024-04-09T02:20:30.606Z,7.68
2024-04-09T02:23:01.470Z,7.85
2024-04-09T02:25:32.733Z,7.20
2024-04-09T02:28:00.973Z,7.43
2024-04-09T02:30:33.084Z,8.23
2024-04-09T02:33:01.542Z,6.97
2024-04-09T02:35:33.435Z,7.78
2024-04-09T02:38:06.210Z,8.68
2024-04-09T02:40:37.566Z,9.35
2024-04-09T02:43:06.047Z,8.77
2024-04-09T02:45:37.448Z,9.18
2024-04-09T02:48:07.735Z,8.00
2024-04-09T02:50:39.114Z,9.00
2024-04-09T02:53:10.983Z,9.23
2024-04-09T02:55:42.267Z,8.52
2024-04-09T02:58:10.492Z,8.82
2024-04-09T03:00:43.687Z,9.68
2024-04-09T03:03:12.327Z,7.95
2024-04-09T03:05:43.768Z,8.02
2024-04-09T03:08:14.655Z,9.00
2024-04-09T03:10:46.111Z,8.32
2024-04-09T03:13:14.282Z,8.23
2024-04-09T03:15:45.673Z,8.18
2024-04-09T03:18:14.410Z,8.57
2024-04-09T03:20:45.655Z,8.85
2024-04-09T03:23:16.493Z,7.95
2024-04-09T03:25:47.839Z,8.00
2024-04-09T03:28:16.068Z,7.80
2024-04-09T03:30:47.462Z,7.78
2024-04-09T03:33:16.040Z,7.80
2024-04-09T03:35:53.950Z,7.00
2024-04-09T03:38:28.486Z,7.68
2024-04-09T03:41:01.946Z,8.82
2024-04-09T03:43:33.377Z,8.20
2024-04-09T03:46:07.832Z,7.20
2024-04-09T03:48:39.634Z,11.32
2024-04-09T03:51:09.227Z,38.47
2024-04-09T03:53:43.126Z,56.78
2024-04-09T03:56:11.952Z,40.70
2024-04-09T03:58:44.022Z,23.92
2024-04-09T04:01:12.958Z,15.88
2024-04-09T04:03:45.928Z,10.50
2024-04-09T04:06:15.295Z,9.10
2024-04-09T04:08:49.669Z,7.55
2024-04-09T04:11:18.703Z,7.18
2024-04-09T04:13:50.062Z,7.65
2024-04-09T04:16:19.572Z,7.53
2024-04-09T04:18:52.156Z,7.72
2024-04-09T04:21:22.700Z,7.30
2024-04-09T04:23:58.247Z,7.15
2024-04-09T04:26:28.303Z,8.27
2024-04-09T04:29:00.525Z,21.92
2024-04-09T04:31:30.734Z,23.48
2024-04-09T04:34:02.132Z,28.85
2024-04-09T04:36:32.135Z,13.88
2024-04-09T04:39:05.892Z,8.93
2024-04-09T04:41:34.732Z,8.90
2024-04-09T04:44:06.323Z,9.00
2024-04-09T04:46:34.960Z,9.48
2024-04-09T04:49:05.872Z,9.00
2024-04-09T04:51:34.782Z,7.95
2024-04-09T04:54:08.336Z,9.23
2024-04-09T04:56:36.918Z,8.88
2024-04-09T04:59:07.740Z,25.70
2024-04-09T05:01:36.514Z,27.98
2024-04-09T05:04:07.994Z,20.33
2024-04-09T05:06:37.366Z,10.80
2024-04-09T05:09:13.177Z,10.00
2024-04-09T05:11:42.015Z,8.77
2024-04-09T05:14:12.872Z,7.78
2024-04-09T05:16:41.609Z,12.23
2024-04-09T05:19:12.672Z,11.45
2024-04-09T05:21:41.478Z,13.23
2024-04-09T05:24:15.376Z,13.65
2024-04-09T05:26:44.156Z,11.88
2024-04-09T05:29:14.917Z,11.52
2024-04-09T05:31:46.585Z,9.55
2024-04-09T05:34:17.873Z,9.65
2024-04-09T05:36:46.867Z,10.25
2024-04-09T05:39:20.949Z,11.07
2024-04-09T05:41:51.302Z,12.52
2024-04-09T05:44:22.599Z,13.27
2024-04-09T05:46:51.435Z,11.50
2024-04-09T05:49:24.226Z,11.10
2024-04-09T05:51:53.118Z,10.85
2024-04-09T05:54:27.090Z,10.48
2024-04-09T05:56:57.478Z,10.30
2024-04-09T05:59:28.888Z,10.43
2024-04-09T06:01:59.281Z,10.70
2024-04-09T06:04:30.568Z,10.60
2024-04-09T06:07:01.147Z,9.60
2024-04-09T06:09:34.989Z,9.73
2024-04-09T06:12:04.983Z,10.80
2024-04-09T06:14:36.158Z,20.15
2024-04-09T06:17:05.249Z,14.32
2024-04-09T06:19:36.665Z,23.73
2024-04-09T06:22:05.957Z,11.57
2024-04-09T06:24:39.963Z,10.80
2024-04-09T06:27:08.964Z,11.10
2024-04-09T06:29:39.945Z,9.55
2024-04-09T06:32:10.235Z,8.88
2024-04-09T06:34:41.318Z,9.45
2024-04-09T06:37:10.429Z,10.00
2024-04-09T06:39:44.439Z,11.70
2024-04-09T06:42:13.379Z,9.05
2024-04-09T06:44:44.564Z,7.07
2024-04-09T06:47:13.673Z,7.57
2024-04-09T06:49:48.181Z,7.85
2024-04-09T06:52:17.776Z,7.45
2024-04-09T06:54:51.652Z,8.50
2024-04-09T06:57:20.716Z,7.40
2024-04-09T06:59:51.872Z,7.97
2024-04-09T07:02:20.683Z,8.80
2024-04-09T07:04:51.798Z,7.40
2024-04-09T07:07:20.586Z,7.38
2024-04-09T07:09:55.976Z,7.28
2024-04-09T07:12:24.710Z,7.32
2024-04-09T07:14:55.854Z,6.82
2024-04-09T07:17:24.821Z,7.65
2024-04-09T07:19:59.394Z,7.97
2024-04-09T07:22:28.938Z,7.28
2024-04-09T07:25:02.598Z,7.82
2024-04-09T07:27:31.574Z,7.53
2024-04-09T07:30:02.642Z,6.55
2024-04-09T07:32:31.844Z,7.60
2024-04-09T07:35:05.103Z,9.23
2024-04-09T07:37:34.149Z,8.82
2024-04-09T07:40:08.724Z,8.88
2024-04-09T07:42:37.753Z,8.18
2024-04-09T07:45:11.440Z,8.05
2024-04-09T07:47:41.827Z,7.15
2024-04-09T07:50:13.155Z,7.97
2024-04-09T07:52:41.977Z,7.47
2024-04-09T07:55:16.257Z,7.13
2024-04-09T07:57:45.250Z,7.80
2024-04-09T08:00:21.588Z,7.70
2024-04-09T08:02:50.650Z,6.82
2024-04-09T08:05:21.947Z,8.05
2024-04-09T08:07:51.318Z,6.75
2024-04-09T08:10:25.775Z,7.28
2024-04-09T08:12:56.047Z,8.85
2024-04-09T08:15:27.287Z,7.97
2024-04-09T08:17:56.374Z,6.97
2024-04-09T08:20:27.923Z,7.00
2024-04-09T08:22:56.826Z,6.75
2024-04-09T08:25:30.782Z,6.20
2024-04-09T08:28:02.846Z,7.10
2024-04-09T08:30:34.995Z,6.68
2024-04-09T08:33:05.443Z,6.38
2024-04-09T08:35:36.701Z,7.70
2024-04-09T08:38:05.628Z,5.78
2024-04-09T08:40:39.702Z,5.43
2024-04-09T08:43:08.697Z,6.63
2024-04-09T08:45:41.271Z,6.15
2024-04-09T08:48:12.995Z,6.90
2024-04-09T08:50:48.020Z,5.97
2024-04-09T08:53:19.519Z,6.07
2024-04-09T08:55:55.102Z,7.18
2024-04-09T08:58:24.033Z,6.15
2024-04-09T09:00:55.308Z,5.63
2024-04-09T09:03:24.983Z,5.90
2024-04-09T09:06:03.180Z,5.63
2024-04-09T09:08:43.563Z,6.30
2024-04-09T09:11:25.287Z,5.03
2024-04-09T09:13:54.238Z,6.25
2024-04-09T09:16:25.402Z,4.82
2024-04-09T09:19:05.798Z,4.95
2024-04-09T09:21:37.022Z,5.78
2024-04-09T09:24:06.720Z,5.13
2024-04-09T09:26:40.553Z,5.18
2024-04-09T09:29:09.649Z,5.60
2024-04-09T09:31:43.731Z,6.40
2024-04-09T09:34:14.749Z,5.88
2024-04-09T09:36:47.962Z,5.18
2024-04-09T09:39:17.423Z,5.30
2024-04-09T09:41:51.599Z,5.22
2024-04-09T09:44:20.550Z,5.30
2024-04-09T09:46:52.829Z,4.75
2024-04-09T09:49:22.164Z,5.00
2024-04-09T09:51:53.736Z,4.28
2024-04-09T09:54:24.165Z,4.40
2024-04-09T09:57:04.536Z,5.20
2024-04-09T09:59:37.137Z,3.92
2024-04-09T10:02:09.914Z,4.43
2024-04-09T10:04:39.717Z,4.88
2024-04-09T10:07:11.131Z,3.60
2024-04-09T10:09:45.136Z,6.40
2024-04-09T10:12:32.712Z,5.25
2024-04-09T10:15:04.737Z,5.18
2024-04-09T10:17:53.200Z,4.15
2024-04-09T10:20:23.620Z,4.15
2024-04-09T10:22:57.095Z,7.30
2024-04-09T10:25:26.522Z,5.60
2024-04-09T10:28:09.377Z,4.63
2024-04-09T10:30:39.686Z,3.53
2024-04-09T10:33:12.048Z,4.32
2024-04-09T10:35:44.326Z,4.13
2024-04-09T10:38:15.509Z,4.35
2024-04-09T10:40:44.117Z,3.65
2024-04-09T10:43:18.606Z,4.13
2024-04-09T10:45:56.008Z,4.35
2024-04-09T10:48:36.426Z,3.97
2024-04-09T10:51:05.679Z,4.47
2024-04-09T10:53:39.440Z,4.30
2024-04-09T10:56:08.887Z,4.40
2024-04-09T10:58:44.359Z,3.97
2024-04-09T11:01:17.061Z,3.72
2024-04-09T11:03:49.293Z,3.67
2024-04-09T11:06:18.665Z,4.55
2024-04-09T11:08:50.551Z,4.57
2024-04-09T11:11:20.814Z,4.43
2024-04-09T11:13:54.489Z,4.18
2024-04-09T11:16:23.011Z,4.03
2024-04-09T11:19:03.838Z,4.10
2024-04-09T11:21:34.027Z,3.45
2024-04-09T11:24:05.618Z,3.63
2024-04-09T11:26:34.224Z,4.85
2024-04-09T11:29:07.685Z,3.75
2024-04-09T11:31:37.484Z,4.95
2024-04-09T11:34:09.534Z,5.22
2024-04-09T11:36:38.461Z,3.65
2024-04-09T11:39:09.394Z,4.13
2024-04-09T11:41:42.683Z,3.90
2024-04-09T11:44:23.330Z,3.75
2024-04-09T11:46:51.957Z,4.28
2024-04-09T11:49:23.055Z,4.28
2024-04-09T11:51:51.764Z,3.88
2024-04-09T11:54:22.572Z,4.63
2024-04-09T11:56:51.213Z,4.28
2024-04-09T11:59:24.488Z,3.92
2024-04-09T12:01:53.264Z,4.82
2024-04-09T12:04:24.175Z,3.90
2024-04-09T12:06:53.010Z,4.68
2024-04-09T12:09:23.850Z,4.75
2024-04-09T12:11:52.410Z,4.35
2024-04-09T12:14:25.716Z,5.18
2024-04-09T12:16:54.214Z,4.63
2024-04-09T12:19:24.953Z,4.65
2024-04-09T12:21:53.457Z,4.32
2024-04-09T12:24:25.443Z,4.97
2024-04-09T12:26:54.015Z,4.15
2024-04-09T12:29:29.713Z,5.13
2024-04-09T12:31:59.322Z,4.22
2024-04-09T12:34:32.004Z,4.25
2024-04-09T12:37:00.610Z,4.00
2024-04-09T12:39:31.997Z,3.83
2024-04-09T12:42:00.879Z,5.43
2024-04-09T12:44:34.276Z,3.40
2024-04-09T12:47:03.030Z,3.72
2024-04-09T12:49:41.925Z,4.40
2024-04-09T12:52:13.876Z,4.10
2024-04-09T12:54:45.064Z,4.03
2024-04-09T12:57:13.712Z,4.18
2024-04-09T12:59:59.701Z,3.67
2024-04-09T13:02:35.937Z,4.32
2024-04-09T13:05:13.121Z,4.88
2024-04-09T13:07:41.684Z,3.88
2024-04-09T13:10:12.433Z,4.32
2024-04-09T13:12:41.067Z,4.32
2024-04-09T13:16:44.328Z,3.95
2024-04-09T13:18:03.346Z,4.00
2024-04-09T13:20:34.238Z,3.50
2024-04-09T13:23:04.552Z,4.57
2024-04-09T13:25:37.014Z,3.65
2024-04-09T13:28:05.831Z,4.18
2024-04-09T13:30:41.658Z,3.80
2024-04-09T13:33:10.370Z,3.58
2024-04-09T13:35:41.118Z,3.90
2024-04-09T13:38:09.738Z,3.95
2024-04-09T13:40:40.550Z,4.13
2024-04-09T13:43:09.503Z,3.10
2024-04-09T13:45:43.378Z,4.68
2024-04-09T13:48:11.989Z,3.55
2024-04-09T13:50:43.227Z,3.90
2024-04-09T13:53:14.818Z,3.70
2024-04-09T13:55:45.539Z,4.43
2024-04-09T13:58:14.097Z,3.63
2024-04-09T14:00:47.428Z,3.20
2024-04-09T14:03:19.399Z,3.72
2024-04-09T14:05:47.877Z,3.47
2024-04-09T14:08:19.106Z,3.72
2024-04-09T14:10:50.945Z,4.05
2024-04-09T14:13:22.784Z,4.10
2024-04-09T14:15:56.144Z,3.45
2024-04-09T14:18:28.120Z,4.00
2024-04-09T14:21:03.465Z,3.50
2024-04-09T14:23:35.872Z,3.78
2024-04-09T14:26:09.979Z,3.97
2024-04-09T14:28:40.923Z,3.55
2024-04-09T14:31:19.354Z,3.63
2024-04-09T14:33:48.592Z,3.97
2024-04-09T14:36:19.385Z,4.43
2024-04-09T14:38:48.187Z,3.95
2024-04-09T14:41:21.090Z,4.07
2024-04-09T14:43:49.881Z,3.90
2024-04-09T14:46:23.240Z,3.88
2024-04-09T14:48:54.406Z,2.83
2024-04-09T14:51:26.491Z,3.92
2024-04-09T14:53:54.992Z,3.72
2024-04-09T14:56:25.843Z,3.45
2024-04-09T14:58:54.387Z,4.00
2024-04-09T15:01:27.830Z,2.55
2024-04-09T15:03:56.414Z,3.05
2024-04-09T15:06:27.581Z,3.50
2024-04-09T15:08:56.125Z,3.78
2024-04-09T15:11:27.074Z,3.40
2024-04-09T15:13:55.603Z,3.53
2024-04-09T15:16:28.987Z,3.60
2024-04-09T15:18:57.641Z,3.55
2024-04-09T15:21:28.339Z,2.45
2024-04-09T15:23:57.364Z,4.55
2024-04-09T15:26:28.100Z,4.28
2024-04-09T15:28:56.632Z,4.15
2024-04-09T15:31:29.997Z,3.60
2024-04-09T15:33:59.244Z,3.22
2024-04-09T15:36:30.085Z,3.33
2024-04-09T15:38:59.874Z,3.25
2024-04-09T15:41:30.663Z,3.42
2024-04-09T15:43:59.303Z,3.05
2024-04-09T15:46:32.716Z,3.67
2024-04-09T15:49:01.483Z,2.90
2024-04-09T15:51:32.228Z,3.67
2024-04-09T15:54:01.982Z,6.30
2024-04-09T15:56:33.057Z,5.82
2024-04-09T15:59:04.289Z,3.85
2024-04-09T16:01:43.268Z,3.90
2024-04-09T16:04:11.931Z,3.45
2024-04-09T16:06:46.268Z,4.53
2024-04-09T16:09:18.141Z,3.92
2024-04-09T16:11:47.112Z,3.97
2024-04-09T16:14:18.443Z,4.55
2024-04-09T16:16:51.486Z,5.28
2024-04-09T16:19:24.734Z,4.05
2024-04-09T16:21:54.185Z,3.63
2024-04-09T16:24:25.417Z,4.85
2024-04-09T16:26:53.810Z,3.97
2024-04-09T16:29:24.990Z,3.53
2024-04-09T16:31:55.770Z,3.20
2024-04-09T16:34:27.004Z,4.20
2024-04-09T16:36:55.390Z,4.53
2024-04-09T16:39:26.428Z,3.25
2024-04-09T16:41:54.533Z,3.72
2024-04-09T16:44:27.375Z,4.30
2024-04-09T16:46:58.675Z,3.45
2024-04-09T16:49:29.840Z,4.43
2024-04-09T16:51:58.610Z,13.68
2024-04-09T16:54:29.653Z,20.55
2024-04-09T16:56:57.794Z,8.07
2024-04-09T16:59:28.896Z,6.38
2024-04-09T17:02:02.434Z,4.82
2024-04-09T17:04:33.847Z,4.13
2024-04-09T17:07:02.174Z,4.10
2024-04-09T17:09:33.214Z,3.70
2024-04-09T17:12:01.400Z,4.20
2024-04-09T17:14:34.684Z,4.13
2024-04-09T17:17:06.169Z,3.75
2024-04-09T17:19:37.361Z,6.82
2024-04-09T17:22:07.558Z,5.25
2024-04-09T17:24:38.769Z,5.20
2024-04-09T17:27:06.906Z,4.85
2024-04-09T17:29:38.115Z,4.18
2024-04-09T17:32:09.359Z,5.65
2024-04-09T17:34:40.838Z,5.85
2024-04-09T17:37:10.319Z,6.47
2024-04-09T17:39:41.498Z,5.00
2024-04-09T17:42:10.697Z,5.55
2024-04-09T17:44:42.656Z,15.35
2024-04-09T17:47:13.855Z,53.42
2024-04-09T17:49:44.958Z,24.38
2024-04-09T17:52:13.149Z,34.75
2024-04-09T17:54:44.220Z,62.25
2024-04-09T17:57:14.216Z,50.05
2024-04-09T17:59:45.287Z,49.65
2024-04-09T18:02:16.068Z,54.58
2024-04-09T18:04:47.455Z,33.47
2024-04-09T18:07:15.684Z,17.83
2024-04-09T18:09:48.936Z,12.23
2024-04-09T18:12:17.112Z,9.65
2024-04-09T18:14:48.263Z,8.70
2024-04-09T18:17:25.352Z,8.27
2024-04-09T18:19:56.992Z,6.97
2024-04-09T18:22:25.412Z,8.60
2024-04-09T18:24:57.225Z,16.80
2024-04-09T18:27:25.488Z,15.93
2024-04-09T18:29:56.648Z,9.77
2024-04-09T18:32:28.511Z,6.93
2024-04-09T18:35:01.831Z,7.47
2024-04-09T18:37:30.090Z,8.82
2024-04-09T18:40:01.241Z,6.93
2024-04-09T18:42:29.608Z,8.30
2024-04-09T18:45:01.881Z,9.63
2024-04-09T18:47:32.758Z,9.15
2024-04-09T18:50:04.639Z,8.75
2024-04-09T18:52:33.010Z,9.95
2024-04-09T18:55:04.625Z,7.35
2024-04-09T18:57:32.698Z,7.65
2024-04-09T19:00:04.007Z,7.35
2024-04-09T19:02:35.169Z,7.57
2024-04-09T19:05:06.659Z,8.13
2024-04-09T19:07:35.577Z,8.02
2024-04-09T19:10:10.010Z,6.78
2024-04-09T19:12:38.126Z,9.50
2024-04-09T19:15:09.823Z,9.07
2024-04-09T19:17:40.783Z,10.00
2024-04-09T19:20:13.080Z,8.90
2024-04-09T19:22:42.627Z,9.35
2024-04-09T19:25:13.764Z,8.45
2024-04-09T19:27:43.054Z,8.23
2024-04-09T19:30:16.132Z,8.00
2024-04-09T19:32:46.963Z,9.18
2024-04-09T19:35:18.217Z,8.23
2024-04-09T19:37:46.453Z,7.75
2024-04-09T19:40:17.656Z,8.20
2024-04-09T19:42:45.772Z,8.68
2024-04-09T19:45:16.892Z,9.88
2024-04-09T19:47:47.777Z,11.27
2024-04-09T19:50:19.167Z,12.77
2024-04-09T19:52:47.487Z,9.95
2024-04-09T19:55:19.919Z,9.90
2024-04-09T19:57:50.426Z,8.10
2024-04-09T20:00:21.925Z,10.15
2024-04-09T20:02:52.813Z,9.05
2024-04-09T20:05:24.004Z,8.93
2024-04-09T20:07:52.155Z,8.52
2024-04-09T20:10:23.269Z,8.70
2024-04-09T20:12:52.253Z,8.65
2024-04-09T20:15:23.409Z,8.60
2024-04-09T20:17:54.448Z,9.00
2024-04-09T20:20:26.962Z,9.43
2024-04-09T20:22:55.194Z,10.68
2024-04-09T20:25:26.390Z,7.90
2024-04-09T20:27:54.725Z,7.07
2024-04-09T20:30:26.761Z,8.70
2024-04-09T20:32:57.629Z,7.72
2024-04-09T20:35:36.692Z,7.50
2024-04-09T20:38:11.178Z,8.25
2024-04-09T20:40:42.345Z,7.90
2024-04-09T20:43:10.534Z,8.02
2024-04-09T20:45:41.608Z,8.88
2024-04-09T20:48:12.617Z,9.13
2024-04-09T20:50:45.389Z,10.27
2024-04-09T20:53:13.670Z,11.00
2024-04-09T20:55:44.824Z,17.45
2024-04-09T20:58:12.962Z,51.03
2024-04-09T21:00:44.110Z,46.75
2024-04-09T21:03:14.906Z,42.60
2024-04-09T21:05:46.271Z,51.00
2024-04-09T21:08:14.656Z,45.70
2024-04-09T21:10:50.452Z,43.58
2024-04-09T21:13:20.310Z,52.72
2024-04-09T21:15:51.660Z,70.72
2024-04-09T21:18:27.062Z,58.85
2024-04-09T21:20:56.496Z,61.92
2024-04-09T21:23:27.545Z,49.95
2024-04-09T21:25:57.226Z,51.38
2024-04-09T21:28:28.224Z,40.15
2024-04-09T21:30:57.559Z,46.50
2024-04-09T21:33:31.470Z,35.33
2024-04-09T21:36:00.331Z,40.42
2024-04-09T21:38:31.430Z,37.00
2024-04-09T21:41:09.369Z,18.23
2024-04-09T21:43:40.411Z,38.67
2024-04-09T21:46:09.050Z,32.90
2024-04-09T21:48:42.860Z,22.85
2024-04-09T21:51:12.042Z,17.80
2024-04-09T21:53:44.737Z,11.27
2024-04-09T21:56:13.463Z,11.75
2024-04-09T21:58:44.479Z,9.98
2024-04-09T22:01:13.114Z,34.28
2024-04-09T22:03:46.812Z,23.40
2024-04-09T22:06:15.585Z,52.65
2024-04-09T22:08:46.407Z,36.30
2024-04-09T22:11:15.145Z,50.28
2024-04-09T22:13:46.039Z,50.72
2024-04-09T22:16:14.822Z,50.60
2024-04-09T22:18:48.451Z,62.25
2024-04-09T22:21:17.057Z,56.05
2024-04-09T22:23:47.848Z,60.08
2024-04-09T22:26:16.599Z,63.13
2024-04-09T22:28:47.474Z,57.30
2024-04-09T22:31:16.077Z,53.08
2024-04-09T22:33:52.120Z,54.00
2024-04-09T22:36:21.865Z,47.50
2024-04-09T22:38:52.799Z,42.20
2024-04-09T22:41:21.563Z,33.90
2024-04-09T22:43:52.513Z,32.30
2024-04-09T22:46:21.156Z,28.73
2024-04-09T22:48:55.035Z,21.80
2024-04-09T22:51:23.901Z,15.85
2024-04-09T22:53:56.957Z,11.20
2024-04-09T22:56:25.718Z,28.83
2024-04-09T22:58:56.836Z,17.75
2024-04-09T23:01:25.562Z,38.40
2024-04-09T23:03:59.093Z,42.38
2024-04-09T23:06:27.698Z,24.98
2024-04-09T23:08:58.526Z,18.42
2024-04-09T23:11:27.313Z,14.85
2024-04-09T23:13:58.237Z,15.68
2024-04-09T23:16:26.962Z,22.83
2024-04-09T23:19:00.583Z,22.73
2024-04-09T23:21:29.361Z,25.50
2024-04-09T23:24:00.206Z,41.97
2024-04-09T23:26:29.053Z,48.80
2024-04-09T23:29:00.142Z,37.88
2024-04-09T23:31:28.776Z,33.08
2024-04-09T23:34:02.595Z,49.35
2024-04-09T23:36:31.403Z,46.45
2024-04-09T23:39:02.254Z,46.75
2024-04-09T23:41:31.036Z,44.92
2024-04-09T23:44:02.012Z,28.17
2024-04-09T23:46:30.787Z,34.50
2024-04-09T23:49:04.256Z,33.42
2024-04-09T23:51:34.329Z,39.42
2024-04-09T23:54:05.271Z,18.50
2024-04-09T23:56:34.020Z,20.77
2024-04-09T23:59:04.788Z,11.98
